メインページ
METAR-TAF:

METAR-TAF

空港 :

サンパウロ, サンパウロ州, ブラジル

コンゴーニャス空港

緯度: 23-37S, 経度: 046-39W, 海抜: 803m

現時点の気象観測

当レポートは1時間1分前の05:00(UTC)に作成
変向風 2kt
気温 19°C
湿度 83%
気圧 1019 hPa
視程10km以上
1,500メートル以下は雲なし、積乱雲なし

METAR: SBSP 250500Z AUTO VRB02KT CAVOK 19/16 Q1019

時間: 03:01 (06:01 UTC)

予報

当レポートは4時間3分前の01:58(UTC)に作成
予報は25日の 06時(UTC)から 26日の 06時(UTC)まで有効
南/南東の風 5kt
視程: 8000m
高度1500ftの雲は散在している
確率 30%
25日の 07時(UTC)から 25日の 09時(UTC)まで
高度1100ftの千切れ雲あり
25日の 11時(UTC)から 25日の 13時(UTC)まで徐々に
南東の風 5kt
高度3000ftの雲はほとんどない
25日の 15時(UTC)から 25日の 17時(UTC)まで徐々に
南/南東の風 10kt
視程10km以上
高度3500ftの雲は散在している
25日の 17時(UTC)から 25日の 19時(UTC)まで徐々に
南/南東の風 12kt
25日の 19時(UTC)から 25日の 21時(UTC)まで徐々に
高度2500ftの雲は散在している
25日の 21時(UTC)から 25日の 23時(UTC)まで徐々に
高度1300ftの千切れ雲あり

TAF: SBSP 250158Z 2506/2606 15005KT 8000 SCT015 TN17/2507Z TX26/2516Z PROB30 2507/2509 BKN011 BECMG 2511/2513 13005KT FEW030 BECMG 2515/2517 15010KT 9999 SCT035 BECMG 2517/2519 16012KT BECMG 2519/2521 SCT025 BECMG 2521/2523 BKN013 RMK PGM

4,000以上の空港の気象観測と天気予報(METAR報とTAF報)

利用可能な観測所は地図上に黄色い丸と赤い丸で示す。

丸の上にカーソルを重ねると観測所名を参照できる。

次にクリックすると気象観測と天気予報を参照できる。

マップの切り替え:黒色「×」印の緑ボタンをクリックして拡大、「-」印の緑ボタンをクリックして縮小、緑色の三角印をクリックして隣りの地図に切り替え


METAR-TAF: